createdAt,value
2023-01-08T10:33:38.869Z,43.60
2023-01-08T10:36:09.117Z,47.30
2023-01-08T10:38:48.711Z,52.67
2023-01-08T10:41:16.293Z,49.78
2023-01-08T10:43:54.165Z,50.27
2023-01-08T10:46:27.532Z,36.47
2023-01-08T10:49:00.672Z,42.55
2023-01-08T10:51:30.334Z,35.42
2023-01-08T10:54:01.939Z,46.08
2023-01-08T10:56:31.676Z,46.50
2023-01-08T10:58:58.779Z,32.70
2023-01-08T11:01:27.445Z,42.13
2023-01-08T11:04:00.268Z,44.17
2023-01-08T11:06:32.903Z,42.08
2023-01-08T11:09:22.300Z,46.80
2023-01-08T11:14:35.357Z,41.13
2023-01-08T11:17:10.394Z,40.92
2023-01-08T11:19:37.845Z,31.98
2023-01-08T11:22:25.306Z,43.97
2023-01-08T11:24:54.292Z,35.00
2023-01-08T11:27:30.999Z,44.72
2023-01-08T11:30:07.205Z,40.95
2023-01-08T11:32:37.336Z,50.65
2023-01-08T11:35:22.051Z,53.47
2023-01-08T11:37:58.503Z,55.78
2023-01-08T11:40:31.547Z,44.30
2023-01-08T11:43:36.240Z,41.20
2023-01-08T11:46:27.338Z,49.53
2023-01-08T11:49:03.502Z,55.73
2023-01-08T11:52:10.637Z,56.38
2023-01-08T11:55:21.073Z,51.40
2023-01-08T11:58:10.411Z,30.90
2023-01-08T12:00:58.996Z,30.63
2023-01-08T12:03:26.228Z,24.90
2023-01-08T12:06:01.510Z,26.45
2023-01-08T12:08:48.898Z,30.85
2023-01-08T12:11:31.960Z,26.50
2023-01-08T12:14:05.186Z,24.33
2023-01-08T12:17:09.671Z,20.10
2023-01-08T12:19:54.761Z,37.30
2023-01-08T12:22:43.572Z,31.25
2023-01-08T12:25:29.555Z,30.48
2023-01-08T12:28:06.045Z,29.58
2023-01-08T12:30:53.092Z,24.03
2023-01-08T12:33:32.054Z,20.63
2023-01-08T12:36:02.860Z,27.30
2023-01-08T12:38:40.219Z,19.77
2023-01-08T12:41:12.818Z,21.20
2023-01-08T12:44:04.783Z,21.50
2023-01-08T12:46:37.869Z,20.80
2023-01-08T12:49:07.008Z,21.23
2023-01-08T12:51:50.417Z,24.05
2023-01-08T12:54:25.221Z,21.67
2023-01-08T12:57:18.996Z,18.33
2023-01-08T12:59:48.639Z,18.20
2023-01-08T13:02:37.412Z,17.02
2023-01-08T13:05:29.289Z,26.02
2023-01-08T13:08:05.277Z,19.48
2023-01-08T13:10:39.416Z,26.93
2023-01-08T13:13:23.122Z,18.10
2023-01-08T13:16:19.385Z,21.27
2023-01-08T13:18:57.566Z,22.10
2023-01-08T13:21:52.742Z,27.65
2023-01-08T13:24:49.348Z,22.97
2023-01-08T13:27:19.166Z,26.73
2023-01-08T13:29:48.310Z,22.67
2023-01-08T13:32:46.996Z,22.38
2023-01-08T13:35:17.110Z,19.92
2023-01-08T13:37:46.933Z,17.50
2023-01-08T13:40:36.451Z,20.92
2023-01-08T13:43:12.926Z,18.45
2023-01-08T13:45:41.304Z,24.88
2023-01-08T13:48:22.360Z,21.83
2023-01-08T13:50:49.939Z,19.03
2023-01-08T13:53:17.782Z,19.70
2023-01-08T13:56:04.117Z,21.02
2023-01-08T13:58:51.592Z,26.00
2023-01-08T14:01:19.174Z,17.45
2023-01-08T14:03:48.190Z,23.47
2023-01-08T14:06:21.456Z,22.63
2023-01-08T14:08:51.741Z,21.45
2023-01-08T16:06:14.748Z,16.08
2023-01-08T16:08:46.256Z,18.60
2023-01-08T16:11:14.049Z,18.65
2023-01-08T16:13:41.161Z,13.13
2023-01-08T16:16:16.122Z,19.92
2023-01-08T16:18:43.184Z,21.05
2023-01-08T16:21:11.326Z,15.75
2023-01-08T16:23:39.553Z,17.38
2023-01-08T16:26:07.828Z,13.27
2023-01-08T16:28:35.288Z,16.63
2023-01-08T16:31:02.466Z,18.60
2023-01-08T16:33:29.701Z,15.95
2023-01-08T16:36:02.425Z,19.75
2023-01-08T16:38:29.649Z,19.33
2023-01-08T16:40:57.404Z,12.13
2023-01-08T16:43:25.720Z,19.70
2023-01-08T16:45:52.936Z,16.15
